Time;durP1;ratioP1;P1;durP2;ratioP2;P2;SDS_P1;SDS_P2;PMS_P1;PMS_P2;Temp;Humidity;BMP_temperature;BMP_pressure;BME280_temperature;BME280_humidity;BME280_pressure;Samples;Min_cycle;Max_cycle;Signal;HPM_P1;HPM_P2
2022/03/11 00:00:56;;;;;;;10.15;1.95;;;20.50;73.60;;;;;;5051022;28;20304;-66
2022/03/11 00:03:23;;;;;;;6.82;1.95;;;20.40;72.80;;;;;;5035157;28;20033;-66
2022/03/11 00:05:51;;;;;;;8.63;2.25;;;20.50;74.20;;;;;;5053191;28;20541;-67
2022/03/11 00:08:18;;;;;;;13.60;2.33;;;20.50;73.40;;;;;;5035293;28;20111;-67
2022/03/11 00:10:46;;;;;;;9.05;1.98;;;20.50;73.00;;;;;;5018808;28;20037;-68
2022/03/11 00:13:13;;;;;;;13.75;2.63;;;20.50;72.90;;;;;;5018473;28;20344;-67
2022/03/11 00:15:40;;;;;;;51.78;5.78;;;20.50;72.70;;;;;;5052604;28;20029;-66
2022/03/11 00:18:07;;;;;;;11.75;1.90;;;20.50;73.60;;;;;;5035175;28;20028;-67
2022/03/11 00:20:35;;;;;;;23.02;2.90;;;20.50;72.70;;;;;;5035839;28;20088;-67
2022/03/11 00:23:02;;;;;;;19.00;2.53;;;20.60;72.00;;;;;;5033013;28;20108;-67
2022/03/11 00:25:32;;;;;;;8.52;2.20;;;20.50;72.40;;;;;;4998842;28;20029;-67
2022/03/11 00:27:59;;;;;;;9.57;2.10;;;20.40;72.80;;;;;;5015437;28;20026;-66
2022/03/11 00:30:28;;;;;;;12.10;2.47;;;20.40;73.60;;;;;;5045428;28;20052;-66
2022/03/11 00:32:55;;;;;;;7.75;1.95;;;20.40;73.70;;;;;;5034180;28;20515;-67
2022/03/11 00:35:23;;;;;;;14.10;3.35;;;20.60;74.00;;;;;;5052786;28;20475;-67
2022/03/11 00:37:50;;;;;;;11.45;2.85;;;20.60;74.50;;;;;;5034608;28;20033;-67
2022/03/11 00:40:17;;;;;;;12.80;3.72;;;20.70;74.40;;;;;;5052229;28;20391;-67
2022/03/11 00:42:44;;;;;;;15.27;2.50;;;20.70;72.90;;;;;;5052512;28;20052;-66
2022/03/11 00:45:12;;;;;;;14.98;2.22;;;20.60;73.30;;;;;;5018292;28;20025;-67
2022/03/11 00:47:39;;;;;;;13.38;2.10;;;20.60;72.80;;;;;;5034740;28;20121;-66
2022/03/11 00:50:06;;;;;;;17.85;2.08;;;20.60;71.50;;;;;;5034059;28;20051;-67
2022/03/11 00:52:34;;;;;;;11.00;2.03;;;20.70;73.00;;;;;;5052182;28;20052;-67
2022/03/11 00:55:03;;;;;;;5.85;1.92;;;20.70;72.60;;;;;;5051899;28;20032;-67
2022/03/11 00:57:30;;;;;;;8.27;1.97;;;20.70;72.60;;;;;;5018255;28;20391;-67
2022/03/11 00:59:57;;;;;;;7.63;2.10;;;20.70;73.10;;;;;;5062672;28;20313;-67
2022/03/11 01:02:25;;;;;;;9.93;2.17;;;20.70;73.00;;;;;;5072205;28;20068;-67
2022/03/11 01:04:52;;;;;;;8.40;1.80;;;20.70;72.00;;;;;;5070058;28;20086;-67
2022/03/11 01:07:19;;;;;;;13.10;2.50;;;20.70;71.70;;;;;;5071866;28;20028;-67
2022/03/11 01:09:46;;;;;;;9.68;2.10;;;20.80;71.50;;;;;;5072454;28;20515;-67
2022/03/11 01:12:13;;;;;;;16.13;5.95;;;20.80;72.10;;;;;;5071924;28;20041;-66
2022/03/11 01:14:44;;;;;;;13.65;2.80;;;20.90;71.50;;;;;;5071905;28;20052;-68
2022/03/11 01:17:12;;;;;;;16.65;3.22;;;20.90;71.40;;;;;;5071214;28;20024;-67
2022/03/11 01:19:40;;;;;;;6.93;1.70;;;20.80;71.30;;;;;;5074326;28;20034;-67
2022/03/11 01:22:07;;;;;;;6.57;1.88;;;20.70;71.00;;;;;;5053362;28;20037;-67
2022/03/11 01:24:34;;;;;;;15.10;3.13;;;20.70;72.90;;;;;;5070866;28;20112;-67
2022/03/11 01:27:01;;;;;;;8.05;2.42;;;20.70;71.70;;;;;;5071494;28;20052;-67
2022/03/11 01:29:29;;;;;;;7.28;2.55;;;20.80;72.30;;;;;;5053269;28;20029;-67
2022/03/11 01:31:56;;;;;;;23.75;2.10;;;20.80;70.30;;;;;;5050443;28;20434;-67
2022/03/11 01:34:23;;;;;;;12.35;2.70;;;20.90;70.90;;;;;;5070257;28;20056;-67
2022/03/11 01:36:50;;;;;;;8.15;1.67;;;21.00;70.90;;;;;;5071256;28;20032;-67
2022/03/11 01:39:17;;;;;;;13.18;2.42;;;21.00;69.90;;;;;;5070543;28;20029;-67
2022/03/11 01:41:45;;;;;;;7.38;2.05;;;21.00;70.70;;;;;;5071348;28;20048;-67
2022/03/11 01:44:12;;;;;;;13.07;2.47;;;21.10;69.60;;;;;;5053535;28;20115;-67
2022/03/11 01:46:40;;;;;;;10.13;2.35;;;21.10;71.40;;;;;;5071597;28;20058;-66
2022/03/11 01:49:08;;;;;;;24.48;3.38;;;21.10;70.00;;;;;;5070824;28;20028;-67
2022/03/11 01:51:39;;;;;;;11.40;1.98;;;21.20;71.90;;;;;;5070137;28;20178;-66
2022/03/11 01:54:06;;;;;;;7.72;1.70;;;21.20;69.40;;;;;;5070377;28;20028;-67
2022/03/11 01:56:33;;;;;;;6.78;1.63;;;21.10;69.40;;;;;;5070881;28;20059;-66
2022/03/11 01:59:01;;;;;;;20.10;3.17;;;21.20;69.80;;;;;;5053097;28;20033;-67
2022/03/11 02:01:28;;;;;;;41.80;4.28;;;21.20;71.10;;;;;;5051374;28;20394;-67
2022/03/11 02:03:57;;;;;;;9.55;2.40;;;21.30;71.20;;;;;;5071154;28;20048;-67
2022/03/11 02:06:24;;;;;;;11.75;2.58;;;21.30;70.20;;;;;;5070887;28;20027;-67
2022/03/11 02:08:51;;;;;;;16.35;2.20;;;21.30;70.70;;;;;;5052908;28;20047;-67
2022/03/11 02:11:19;;;;;;;16.90;2.08;;;21.30;69.60;;;;;;5052448;28;20067;-67
2022/03/11 02:13:49;;;;;;;24.85;2.22;;;21.30;70.70;;;;;;5070657;28;20048;-67
2022/03/11 02:16:23;;;;;;;52.90;4.47;;;21.30;69.90;;;;;;5052681;28;20040;-67
2022/03/11 02:18:51;;;;;;;9.85;2.40;;;21.30;70.50;;;;;;5070705;28;20036;-67
2022/03/11 02:21:19;;;;;;;24.23;3.22;;;21.40;69.60;;;;;;5052833;28;20421;-67
2022/03/11 02:23:53;;;;;;;15.88;2.60;;;21.40;70.60;;;;;;5070332;28;20396;-66
2022/03/11 02:26:22;;;;;;;33.95;4.00;;;21.40;70.00;;;;;;5052831;28;20044;-67
2022/03/11 02:28:50;;;;;;;16.77;3.55;;;21.40;70.70;;;;;;5069127;28;20036;-67
2022/03/11 02:31:18;;;;;;;9.60;2.10;;;21.40;71.10;;;;;;5067444;28;20040;-66
2022/03/11 02:33:46;;;;;;;59.58;4.78;;;21.40;71.40;;;;;;5052618;28;20471;-67
2022/03/11 02:36:13;;;;;;;43.35;4.07;;;21.40;70.70;;;;;;5070290;28;20033;-67
2022/03/11 02:38:40;;;;;;;25.17;3.45;;;21.40;70.30;;;;;;5070421;28;20064;-67
2022/03/11 02:41:07;;;;;;;10.25;2.13;;;21.50;70.90;;;;;;5069144;28;20043;-67
2022/03/11 02:43:35;;;;;;;11.38;2.22;;;21.50;70.10;;;;;;5052473;28;20028;-66
2022/03/11 02:46:02;;;;;;;108.55;8.73;;;21.50;71.90;;;;;;5070194;28;20079;-67
2022/03/11 02:48:29;;;;;;;27.33;3.25;;;21.50;71.40;;;;;;5069152;28;20441;-67
2022/03/11 02:50:57;;;;;;;51.45;4.55;;;21.60;70.50;;;;;;5064298;28;20365;-65
2022/03/11 02:53:24;;;;;;;27.70;2.63;;;21.70;68.60;;;;;;5052174;28;20429;-66
2022/03/11 02:55:51;;;;;;;11.43;2.60;;;21.60;69.30;;;;;;5052282;28;20094;-65
2022/03/11 02:58:18;;;;;;;10.75;2.67;;;21.70;70.90;;;;;;5070225;28;20037;-66
2022/03/11 03:00:46;;;;;;;8.25;1.67;;;21.60;71.70;;;;;;5052419;28;20088;-66
2022/03/11 03:03:13;;;;;;;16.20;3.65;;;21.60;70.20;;;;;;5071196;28;20056;-65
2022/03/11 03:05:40;;;;;;;9.70;2.00;;;21.60;72.00;;;;;;5055848;28;20441;-66
2022/03/11 03:08:08;;;;;;;12.32;2.47;;;21.60;71.50;;;;;;5056115;28;20512;-67
2022/03/11 03:10:35;;;;;;;11.57;1.90;;;21.60;71.00;;;;;;5039601;28;20051;-66
2022/03/11 03:13:03;;;;;;;7.20;1.67;;;21.60;70.60;;;;;;5074029;28;20032;-66
2022/03/11 03:15:32;;;;;;;13.65;2.50;;;21.60;70.90;;;;;;5056149;28;20664;-65
2022/03/11 03:17:59;;;;;;;5.68;1.73;;;21.60;72.10;;;;;;5073785;28;20360;-67
2022/03/11 03:20:26;;;;;;;19.05;2.42;;;21.60;71.00;;;;;;5056114;28;20394;-66
2022/03/11 03:22:53;;;;;;;6.68;2.30;;;21.60;71.10;;;;;;5055703;28;20086;-67
2022/03/11 03:25:21;;;;;;;14.25;2.88;;;21.50;71.70;;;;;;5074264;28;20044;-67
2022/03/11 03:32:41;;;;;;;15.55;2.33;;;21.50;71.10;;;;;;5066094;28;20052;-67
2022/03/11 03:35:10;;;;;;;14.43;2.25;;;21.50;70.70;;;;;;5039905;28;20041;-66
2022/03/11 03:37:37;;;;;;;9.70;2.00;;;21.50;70.70;;;;;;5055883;28;20725;-66
2022/03/11 03:40:06;;;;;;;8.98;2.60;;;21.50;71.10;;;;;;5055865;28;20074;-67
2022/03/11 03:42:33;;;;;;;11.52;1.70;;;21.50;70.20;;;;;;5072650;28;20025;-66
2022/03/11 03:45:00;;;;;;;5.22;1.55;;;21.50;68.80;;;;;;5054537;28;20446;-67
2022/03/11 03:47:27;;;;;;;7.07;1.70;;;21.50;68.10;;;;;;5045896;28;20029;-66
2022/03/11 03:49:54;;;;;;;5.30;1.80;;;21.40;68.40;;;;;;5059373;28;20038;-67
2022/03/11 03:52:22;;;;;;;7.10;1.70;;;21.40;68.20;;;;;;5081280;28;20060;-67
2022/03/11 03:54:49;;;;;;;6.93;1.77;;;21.40;69.00;;;;;;5072638;28;20029;-67
2022/03/11 03:57:16;;;;;;;9.00;1.92;;;21.40;70.10;;;;;;5067830;28;20063;-67
2022/03/11 03:59:43;;;;;;;7.53;1.60;;;21.40;69.40;;;;;;5050554;28;20524;-67
2022/03/11 04:02:10;;;;;;;11.30;2.10;;;21.40;68.40;;;;;;5065531;28;20410;-66
2022/03/11 04:04:38;;;;;;;17.25;3.08;;;21.30;67.90;;;;;;5070167;28;20040;-67
2022/03/11 04:07:05;;;;;;;8.10;1.45;;;21.50;68.40;;;;;;5074376;28;20116;-68
2022/03/11 04:09:32;;;;;;;16.38;3.28;;;21.50;68.80;;;;;;5071986;28;20048;-66
2022/03/11 04:11:59;;;;;;;13.25;2.60;;;21.60;69.70;;;;;;5055960;28;20067;-67
2022/03/11 04:14:27;;;;;;;7.72;2.08;;;21.60;69.80;;;;;;5081857;28;20024;-66
2022/03/11 04:16:55;;;;;;;7.05;1.80;;;21.60;69.30;;;;;;5066015;28;20485;-67
2022/03/11 04:19:22;;;;;;;6.85;1.65;;;21.50;70.20;;;;;;5047360;28;20401;-66
2022/03/11 04:21:49;;;;;;;10.15;2.13;;;21.40;70.00;;;;;;5040751;28;20101;-67
2022/03/11 04:24:17;;;;;;;8.13;1.65;;;21.40;71.00;;;;;;5081802;28;20041;-67
2022/03/11 04:26:45;;;;;;;9.77;1.55;;;21.30;70.20;;;;;;5076521;28;20035;-67
2022/03/11 04:29:12;;;;;;;9.52;1.70;;;21.30;69.80;;;;;;5077272;28;20629;-68
2022/03/11 04:31:40;;;;;;;8.60;1.70;;;21.30;70.80;;;;;;5054678;28;20452;-66
2022/03/11 04:34:07;;;;;;;8.00;2.00;;;21.30;69.80;;;;;;5066148;28;20112;-66
2022/03/11 04:36:38;;;;;;;30.63;5.80;;;21.30;71.20;;;;;;5084595;28;20314;-67
2022/03/11 04:39:08;;;;;;;9.90;2.28;;;21.30;70.90;;;;;;5041267;28;20060;-66
2022/03/11 04:41:36;;;;;;;10.40;2.08;;;21.30;69.90;;;;;;5067492;28;20395;-66
2022/03/11 04:44:04;;;;;;;5.53;1.30;;;21.30;69.60;;;;;;5054453;28;20137;-66
2022/03/11 04:46:31;;;;;;;9.73;1.70;;;21.30;69.70;;;;;;5071176;28;20545;-67
2022/03/11 04:48:58;;;;;;;8.63;1.63;;;21.20;70.10;;;;;;5072322;28;20045;-66
2022/03/11 04:51:25;;;;;;;6.13;1.30;;;21.20;70.40;;;;;;5069098;28;20538;-67
2022/03/11 04:53:54;;;;;;;8.80;2.25;;;21.20;69.60;;;;;;5065908;28;20056;-66
2022/03/11 04:56:21;;;;;;;5.20;1.48;;;21.20;70.10;;;;;;5047572;28;20386;-66
2022/03/11 04:58:48;;;;;;;5.72;1.50;;;21.10;68.40;;;;;;5071250;28;20032;-66
2022/03/11 05:01:15;;;;;;;9.35;1.50;;;21.20;69.20;;;;;;5053422;28;20110;-66
2022/03/11 05:03:43;;;;;;;8.73;2.15;;;21.20;69.50;;;;;;5068407;28;20036;-66
2022/03/11 05:06:10;;;;;;;4.18;1.60;;;21.10;69.80;;;;;;5071584;28;20033;-65
2022/03/11 05:08:37;;;;;;;6.82;2.10;;;21.20;70.20;;;;;;5081889;28;20024;-66
2022/03/11 05:11:05;;;;;;;11.00;2.53;;;21.20;69.10;;;;;;5058603;28;20044;-65
2022/03/11 05:13:32;;;;;;;10.75;2.15;;;21.20;68.50;;;;;;5046850;28;20376;-65
2022/03/11 05:15:59;;;;;;;6.90;1.70;;;21.20;69.80;;;;;;5071298;28;20040;-66
2022/03/11 05:18:27;;;;;;;9.40;1.88;;;21.20;68.20;;;;;;5070336;28;20028;-66
2022/03/11 05:20:54;;;;;;;7.20;1.48;;;21.20;69.80;;;;;;5069789;28;20043;-66
2022/03/11 05:23:21;;;;;;;17.92;2.40;;;21.30;69.70;;;;;;5051448;28;20033;-66
2022/03/11 05:25:49;;;;;;;8.23;1.50;;;21.30;69.90;;;;;;5044457;28;20037;-66
2022/03/11 05:28:16;;;;;;;19.40;3.08;;;21.30;69.30;;;;;;5051832;28;20385;-66
2022/03/11 05:55:19;;;;;;;6.35;1.75;;;21.20;70.00;;;;;;5039795;28;20466;-66
2022/03/11 05:57:46;;;;;;;11.75;2.25;;;21.20;69.00;;;;;;5070373;28;20439;-68
2022/03/11 06:00:14;;;;;;;8.35;2.35;;;21.30;68.80;;;;;;5053001;28;20068;-68
2022/03/11 06:02:41;;;;;;;8.13;1.65;;;21.30;69.00;;;;;;5052831;28;20032;-71
2022/03/11 06:05:10;;;;;;;8.50;1.55;;;21.30;70.20;;;;;;5016828;28;20033;-68
2022/03/11 06:07:37;;;;;;;6.93;2.00;;;21.30;70.00;;;;;;5034847;28;20093;-68
2022/03/11 06:10:05;;;;;;;7.30;1.80;;;21.30;71.80;;;;;;5035817;28;20028;-68
2022/03/11 06:12:32;;;;;;;5.30;1.85;;;21.30;71.10;;;;;;5052497;28;20123;-69
2022/03/11 06:15:00;;;;;;;7.03;1.52;;;21.30;71.20;;;;;;5034238;28;20036;-68
2022/03/11 06:17:27;;;;;;;11.25;1.80;;;21.30;71.20;;;;;;5034116;28;20399;-69
2022/03/11 06:19:54;;;;;;;11.05;1.77;;;21.40;71.90;;;;;;5052455;28;20045;-69
2022/03/11 06:22:21;;;;;;;4.45;1.38;;;21.30;70.80;;;;;;5070135;28;20051;-68
2022/03/11 06:24:48;;;;;;;11.50;1.75;;;21.30;71.80;;;;;;5065271;28;20031;-68
2022/03/11 06:27:16;;;;;;;10.35;1.80;;;21.30;69.90;;;;;;5052023;28;20128;-69
2022/03/11 06:29:43;;;;;;;9.18;1.40;;;21.30;70.30;;;;;;5031452;28;20151;-68
2022/03/11 06:32:10;;;;;;;7.10;1.40;;;21.30;69.90;;;;;;5049671;28;20455;-68
2022/03/11 06:34:37;;;;;;;5.47;1.58;;;21.30;70.60;;;;;;5069155;28;20142;-67
2022/03/11 06:37:05;;;;;;;11.07;1.63;;;21.30;70.50;;;;;;5069557;28;20040;-69
2022/03/11 06:39:32;;;;;;;14.10;2.25;;;21.20;70.70;;;;;;5052600;28;20032;-68
2022/03/11 06:41:59;;;;;;;7.38;1.42;;;21.20;71.30;;;;;;5069949;28;20128;-67
2022/03/11 06:44:26;;;;;;;3.65;1.13;;;21.10;69.90;;;;;;5051391;28;20477;-66
2022/03/11 06:46:54;;;;;;;4.03;1.20;;;21.10;70.00;;;;;;5052317;28;20359;-67
2022/03/11 06:49:21;;;;;;;7.93;1.70;;;21.20;69.30;;;;;;5055256;28;20040;-69
2022/03/11 06:51:48;;;;;;;9.65;1.85;;;21.20;69.10;;;;;;5050676;28;20045;-70
2022/03/11 06:54:16;;;;;;;6.20;1.73;;;21.20;70.10;;;;;;5062930;28;20074;-68
2022/03/11 12:53:58;;;;;;;7.75;2.05;;;20.50;73.60;;;;;;5058252;28;20060;-68
2022/03/11 12:56:25;;;;;;;16.08;2.50;;;20.50;74.00;;;;;;5034659;28;20391;-68
2022/03/11 12:58:55;;;;;;;10.77;2.30;;;20.50;74.60;;;;;;5043915;28;20435;-69
2022/03/11 13:01:22;;;;;;;;;;;20.40;74.50;;;;;;5051800;28;20394;-69
2022/03/11 13:03:51;;;;;;;6.72;1.85;;;20.40;74.50;;;;;;5052661;28;19995;-69
2022/03/11 13:06:19;;;;;;;6.28;1.60;;;20.40;74.40;;;;;;5035938;28;20029;-69
2022/03/11 13:08:47;;;;;;;6.72;1.60;;;20.40;74.60;;;;;;5063016;28;20046;-69
2022/03/11 13:11:15;;;;;;;4.57;1.30;;;20.40;74.10;;;;;;5084952;28;20149;-68
2022/03/11 13:13:43;;;;;;;6.32;1.38;;;20.40;73.80;;;;;;5081015;28;20043;-68
2022/03/11 13:16:11;;;;;;;8.05;1.88;;;20.40;73.70;;;;;;5062929;28;20075;-69
2022/03/11 13:18:38;;;;;;;4.18;1.58;;;20.40;74.00;;;;;;5077459;28;20044;-69
2022/03/11 13:21:13;;;;;;;8.02;2.22;;;20.40;74.20;;;;;;5068531;28;20055;-69
2022/03/11 13:23:44;;;;;;;4.95;1.88;;;20.40;73.90;;;;;;5062086;28;20047;-69
2022/03/11 13:26:17;;;;;;;9.32;2.20;;;20.40;73.70;;;;;;5036030;28;20144;-68
2022/03/11 13:28:55;;;;;;;6.40;2.33;;;20.40;73.80;;;;;;5053246;28;20033;-68
2022/03/11 13:31:28;;;;;;;3.65;1.17;;;20.40;74.00;;;;;;5052334;28;20051;-69
2022/03/11 13:34:02;;;;;;;5.03;1.83;;;20.30;74.20;;;;;;5052427;28;20082;-68
2022/03/11 13:36:34;;;;;;;7.22;1.73;;;20.40;74.40;;;;;;5050244;28;20399;-69
2022/03/11 13:39:22;;;;;;;7.07;1.52;;;20.30;74.10;;;;;;5044965;28;20402;-69
2022/03/11 13:41:57;;;;;;;3.90;1.33;;;20.40;75.40;;;;;;5047508;28;20021;-69
2022/03/11 13:44:44;;;;;;;4.65;1.50;;;20.30;75.30;;;;;;5035892;28;20028;-69
2022/03/11 13:47:20;;;;;;;4.95;1.30;;;20.30;74.90;;;;;;5038020;28;20029;-68
2022/03/11 13:49:51;;;;;;;5.30;1.55;;;20.30;74.80;;;;;;5069962;28;20083;-69
2022/03/11 20:33:13;;;;;;;9.90;2.10;;;18.30;90.30;;;;;;5065687;28;20071;-67
2022/03/11 20:35:42;;;;;;;8.10;2.10;;;18.30;90.30;;;;;;5068904;28;20498;-69
2022/03/11 20:38:11;;;;;;;9.73;2.55;;;18.30;90.50;;;;;;5049565;28;20120;-66
2022/03/11 20:40:38;;;;;;;6.95;2.28;;;18.30;90.80;;;;;;5056200;28;20192;-66
2022/03/11 20:43:06;;;;;;;8.00;2.13;;;18.30;90.30;;;;;;5032985;28;20062;-67
2022/03/11 20:45:34;;;;;;;6.68;2.17;;;18.30;90.90;;;;;;5041944;28;20089;-68
2022/03/11 20:48:02;;;;;;;10.18;2.40;;;18.30;91.30;;;;;;5053653;28;20079;-68
2022/03/11 20:50:29;;;;;;;5.65;1.95;;;18.30;90.40;;;;;;5055611;28;20040;-67
2022/03/11 20:52:57;;;;;;;10.07;2.45;;;18.30;90.70;;;;;;5044324;28;20032;-66
2022/03/11 20:55:24;;;;;;;11.60;2.90;;;18.30;91.10;;;;;;5019363;28;20078;-68
2022/03/11 20:57:53;;;;;;;10.30;3.58;;;18.30;90.90;;;;;;5041132;28;20029;-67
2022/03/11 21:00:21;;;;;;;6.85;3.20;;;18.30;91.00;;;;;;5049855;28;20314;-66
2022/03/11 21:02:48;;;;;;;10.80;3.05;;;18.30;90.50;;;;;;5015815;28;20025;-67
2022/03/11 21:05:15;;;;;;;10.77;3.10;;;18.30;89.90;;;;;;5053231;28;20521;-67
2022/03/11 21:07:43;;;;;;;11.23;2.70;;;18.40;90.00;;;;;;5033946;28;20513;-67
2022/03/11 21:10:12;;;;;;;10.65;3.05;;;18.40;90.00;;;;;;5049457;28;20036;-68
2022/03/11 21:12:43;;;;;;;14.00;3.10;;;18.40;89.80;;;;;;5034945;28;20164;-67
2022/03/11 21:15:11;;;;;;;14.23;3.53;;;18.50;90.10;;;;;;5052522;28;20048;-67
2022/03/11 21:17:38;;;;;;;12.05;3.20;;;18.60;89.80;;;;;;5065032;28;20446;-67
2022/03/11 21:20:09;;;;;;;8.98;2.67;;;18.60;89.50;;;;;;5066377;28;20033;-69
2022/03/11 21:22:38;;;;;;;9.57;2.78;;;18.70;89.50;;;;;;5053143;28;20112;-67
2022/03/11 21:25:05;;;;;;;15.93;3.10;;;18.70;89.00;;;;;;5070673;28;20067;-67
2022/03/11 21:27:33;;;;;;;13.30;3.15;;;18.70;88.70;;;;;;5065106;28;20029;-67
2022/03/11 21:30:00;;;;;;;13.13;3.13;;;18.70;88.50;;;;;;5069861;28;20119;-67
2022/03/11 21:38:08;;;;;;;12.48;3.00;;;18.70;88.00;;;;;;5049299;27;20555;-67
2022/03/11 21:40:36;;;;;;;13.23;3.25;;;18.80;88.10;;;;;;5046635;28;20040;-67
2022/03/11 21:43:03;;;;;;;12.93;3.00;;;18.80;87.90;;;;;;5047392;28;20025;-68
2022/03/11 21:45:30;;;;;;;10.25;2.67;;;18.90;88.20;;;;;;5046178;28;20701;-67
2022/03/11 21:47:57;;;;;;;11.82;2.78;;;18.90;88.40;;;;;;5045400;28;20071;-67
2022/03/11 21:50:25;;;;;;;11.50;2.50;;;19.00;88.10;;;;;;5045058;28;20021;-67
2022/03/11 21:52:52;;;;;;;9.50;2.80;;;19.00;88.00;;;;;;5029318;28;20423;-67
2022/03/11 21:55:20;;;;;;;6.47;2.65;;;19.00;88.20;;;;;;5062604;28;20357;-67
2022/03/11 21:57:47;;;;;;;8.82;2.65;;;19.10;88.30;;;;;;5046472;28;20061;-68
2022/03/11 22:00:15;;;;;;;10.57;3.03;;;19.10;88.20;;;;;;5055432;28;20024;-66
2022/03/11 22:02:42;;;;;;;10.48;2.45;;;19.20;88.40;;;;;;5051534;28;20478;-69
2022/03/11 22:05:10;;;;;;;9.90;2.53;;;19.30;88.50;;;;;;5030009;28;20506;-68
2022/03/11 22:07:38;;;;;;;8.02;2.75;;;19.30;88.30;;;;;;5046651;28;20032;-68
2022/03/11 22:10:08;;;;;;;8.82;2.45;;;19.30;87.90;;;;;;5046130;28;20037;-68
2022/03/11 22:12:35;;;;;;;5.57;2.40;;;19.40;88.10;;;;;;5027581;28;20428;-68
2022/03/11 22:15:04;;;;;;;9.32;2.80;;;19.50;88.10;;;;;;5027401;28;20049;-68
2022/03/11 22:17:33;;;;;;;9.02;2.63;;;19.60;88.00;;;;;;5009992;28;20080;-68
2022/03/11 22:20:01;;;;;;;12.80;2.85;;;19.60;87.60;;;;;;5027464;28;20129;-68
2022/03/11 22:22:28;;;;;;;7.97;2.63;;;19.70;87.50;;;;;;5027412;28;20545;-68
2022/03/11 22:24:55;;;;;;;7.38;2.40;;;19.70;87.20;;;;;;5027649;28;20022;-68
2022/03/11 22:27:22;;;;;;;10.85;2.78;;;19.70;87.40;;;;;;5009580;28;20053;-68
2022/03/11 22:29:50;;;;;;;10.65;2.65;;;19.80;87.10;;;;;;5050326;28;20078;-68
2022/03/11 22:32:18;;;;;;;5.53;2.22;;;19.80;87.20;;;;;;5065538;28;20037;-68
2022/03/11 22:34:45;;;;;;;10.65;2.60;;;19.90;87.10;;;;;;5051536;28;20020;-68
2022/03/11 23:04:52;;;;;;;7.30;2.00;;;20.90;81.90;;;;;;5024943;28;20071;-67
2022/03/11 23:10:05;;;;;;;10.20;2.10;;;21.00;81.80;;;;;;5046750;28;20073;-68
2022/03/11 23:12:32;;;;;;;16.90;2.40;;;21.10;81.20;;;;;;5032708;28;20041;-68
2022/03/11 23:15:03;;;;;;;9.60;2.33;;;21.20;81.00;;;;;;5034007;28;20664;-68
2022/03/11 23:17:30;;;;;;;28.63;3.13;;;21.20;79.40;;;;;;5032859;28;20065;-68
2022/03/11 23:19:57;;;;;;;21.92;2.70;;;21.20;79.40;;;;;;5015753;28;20116;-68
2022/03/11 23:22:24;;;;;;;18.52;2.72;;;21.20;79.20;;;;;;5015199;28;20184;-68
2022/03/11 23:24:51;;;;;;;21.83;3.65;;;21.20;79.60;;;;;;5032471;28;20036;-68
2022/03/11 23:27:19;;;;;;;6.75;1.55;;;21.30;79.20;;;;;;5014697;28;20103;-68
2022/03/11 23:29:46;;;;;;;14.30;2.42;;;21.30;77.60;;;;;;5014617;28;20543;-68
2022/03/11 23:32:14;;;;;;;13.70;2.97;;;21.30;77.60;;;;;;5014792;28;20121;-68
2022/03/11 23:34:41;;;;;;;20.33;3.65;;;21.30;77.10;;;;;;5014481;28;20484;-68
2022/03/11 23:37:08;;;;;;;19.33;2.90;;;21.30;77.50;;;;;;5015303;28;20056;-68
2022/03/11 23:39:36;;;;;;;6.35;1.70;;;21.30;77.90;;;;;;4998787;28;20550;-68
2022/03/11 23:42:04;;;;;;;5.40;1.25;;;21.20;77.60;;;;;;5014660;28;20076;-68
2022/03/11 23:44:31;;;;;;;8.65;1.88;;;21.20;77.30;;;;;;5014925;28;20149;-68
2022/03/11 23:46:59;;;;;;;9.68;1.88;;;21.20;77.10;;;;;;5014106;28;20040;-68
2022/03/11 23:49:27;;;;;;;11.85;2.67;;;21.20;77.40;;;;;;5032466;28;20033;-68
2022/03/11 23:51:55;;;;;;;10.07;2.38;;;21.20;77.70;;;;;;5031468;28;20068;-68
2022/03/11 23:54:22;;;;;;;7.18;1.70;;;21.20;77.70;;;;;;5031779;28;20045;-68
2022/03/11 23:56:50;;;;;;;12.75;2.70;;;21.20;77.60;;;;;;5032008;28;20044;-68
2022/03/11 23:59:18;;;;;;;21.38;2.58;;;21.30;78.00;;;;;;5013671;28;20033;-68
